CheckWX is a tool to help pilots better visualize weather data.  It is not intended as a substitute for an official pre-flight weather briefing.

17:09:35 UTC

KSPR METAR
Ship Shoal
Ship Shoal, Louisiana, USA
Current

15 mins ago

KSPR 241655Z AUTO VRB05G14KT 10SM CLR 28/23 A3012 RMK A01
Observed
May-24 @ 16:55 UTC
Wind
  • Variable at 5 KTS
  • Gusting to 14 KTS
Visibility
10 SM
Flight Rules
VFR
Cloud Levels
  • Clear skies
Temperature
28°C / 82°F
Dewpoint
23°C / 73°F
Heat Index
31°C / 87°F
Humidity
74%
Altimeter
30.12" Hg
Pressure
1020.02 hPa
Previous

35 mins ago

KSPR 241635Z AUTO VRB05G12KT 10SM FEW026 29/23 A3012 RMK A01
Observed
May-24 @ 16:35 UTC
Wind
  • Variable at 5 KTS
  • Gusting to 12 KTS
Visibility
10 SM
Flight Rules
VFR
Cloud Levels
  • Few at 2,600' AGL
Temperature
29°C / 84°F
Dewpoint
23°C / 73°F
Heat Index
32°C / 90°F
Humidity
70%
Altimeter
30.12" Hg
Pressure
1020.02 hPa
Previous

55 mins ago

KSPR 241615Z AUTO VRB07G13KT 10SM FEW026 29/23 A3012 RMK A01
Observed
May-24 @ 16:15 UTC
Wind
  • Variable at 7 KTS
  • Gusting to 13 KTS
Visibility
10 SM
Flight Rules
VFR
Cloud Levels
  • Few at 2,600' AGL
Temperature
29°C / 84°F
Dewpoint
23°C / 73°F
Heat Index
32°C / 90°F
Humidity
70%
Altimeter
30.12" Hg
Pressure
1020.02 hPa